Date,TemperatureHighF,TemperatureAvgF,TemperatureLowF,DewpointHighF,DewpointAvgF,DewpointLowF,HumidityHigh,HumidityAvg,HumidityLow,PressureMaxIn,PressureMinIn,WindSpeedMaxMPH,WindSpeedAvgMPH,GustSpeedMaxMPH,PrecipitationSumIn
2013-9-3,77.5,65.8,57.8,57.8,51.6,42.1,98,66,30,30.03,29.98,6,1,6,0.00
2013-9-4,77.3,64.7,57.1,59.3,51.8,42.2,100,67,31,30.06,30.01,9,1,10,0.00
2013-9-5,75.1,64.8,60.5,60.8,53.9,45.8,96,70,37,30.03,29.92,6,1,8,0.28
2013-9-6,73.7,64.8,59.6,61.6,54.8,44.3,100,74,36,30.09,29.95,8,1,8,1.34
2013-9-7,77.5,65.9,59.5,60.9,52.4,41.6,98,67,30,30.09,30.00,8,1,9,0.16
2013-9-8,80.5,66.3,54.8,60.0,51.1,40.6,100,66,25,30.09,30.01,8,1,11,0.00
2013-9-9,81.1,66.2,54.8,60.4,51.1,41.8,100,67,27,30.06,29.98,8,1,10,0.00
2013-9-10,85.6,69.1,56.4,59.9,50.9,38.4,100,61,21,30.01,29.89,8,2,9,0.00
2013-9-11,96.2,73.0,58.9,58.0,49.5,38.5,86,51,19,29.98,29.89,8,1,9,0.00
2013-9-12,85.4,69.5,56.0,55.2,46.8,39.1,91,50,21,30.01,29.89,13,2,13,0.00
2013-9-13,72.1,62.7,55.1,59.4,53.1,45.3,100,74,40,29.98,29.86,11,2,11,0.00
2013-9-14,76.2,65.6,60.2,59.7,53.6,46.5,94,68,36,29.89,29.74,8,1,10,0.00
2013-9-15,74.4,63.2,58.0,62.0,55.2,44.6,100,79,36,29.80,29.71,11,2,15,0.43
2013-9-16,65.4,62.3,59.8,57.8,52.5,44.6,90,72,49,29.92,29.80,6,1,6,0.00
2013-9-18,69.4,59.8,50.5,52.1,41.7,29.5,93,57,25,30.09,30.00,8,1,8,0.28
2013-9-19,81.8,59.3,47.6,48.4,40.4,30.7,95,57,20,30.09,29.80,10,2,10,0.00
2013-9-20,77.8,61.7,47.8,55.0,39.1,30.2,89,49,23,29.80,29.56,11,2,14,0.00
2013-9-21,72.2,60.4,54.6,56.6,48.2,33.2,95,69,27,29.71,29.65,8,1,8,0.12
2013-9-22,56.9,54.4,52.4,54.3,50.8,47.0,98,88,75,29.71,29.59,6,0,7,1.54
2013-9-23,58.9,53.4,50.1,53.2,49.7,42.2,100,88,57,29.98,29.71,6,0,6,0.79
2013-9-24,64.7,53.1,47.8,50.1,43.7,30.9,100,76,31,29.98,29.83,7,1,8,0.12
2013-9-25,64.5,53.3,44.9,50.1,42.1,32.3,100,71,33,30.03,29.86,8,1,11,0.00
2013-9-26,66.5,50.8,40.9,47.4,38.7,28.1,100,71,25,30.12,30.03,8,1,10,0.00
2013-9-27,50.6,46.3,40.4,49.4,45.2,40.1,100,96,84,30.12,29.86,5,0,5,0.24
2013-9-28,60.2,51.1,49.0,53.2,47.0,40.5,100,87,56,29.86,29.30,11,1,21,2.28
2013-9-29,56.4,50.9,49.7,49.7,45.1,27.9,98,82,36,29.56,29.21,14,1,19,1.54
2013-9-30,55.0,50.6,47.2,46.6,38.2,23.8,88,65,30,29.89,29.36,13,2,16,0.12